createdAt,value
2023-06-07T00:04:01.503Z,99966.51
2023-06-07T00:09:05.276Z,99971.91
2023-06-07T00:14:08.964Z,99969.80
2023-06-07T00:19:12.539Z,99967.60
2023-06-07T00:24:20.254Z,99968.90
2023-06-07T00:29:23.971Z,99967.21
2023-06-07T00:34:28.214Z,99971.92
2023-06-07T00:39:31.898Z,99961.57
2023-06-07T00:44:35.021Z,99965.70
2023-06-07T00:49:40.109Z,99964.30
2023-06-07T00:54:43.040Z,99959.42
2023-06-07T00:59:49.922Z,99956.63
2023-06-07T01:04:53.401Z,99953.91
2023-06-07T01:09:55.830Z,99956.97
2023-06-07T01:14:59.728Z,99955.38
2023-06-07T01:20:06.570Z,99956.35
2023-06-07T01:25:13.498Z,99960.19
2023-06-07T01:30:17.330Z,99956.77
2023-06-07T01:35:21.054Z,99957.30
2023-06-07T01:40:25.968Z,99950.81
2023-06-07T01:45:29.844Z,99951.50
2023-06-07T01:50:33.099Z,99947.66
2023-06-07T01:55:38.212Z,99945.66
2023-06-07T02:01:20.143Z,99943.99
2023-06-07T02:06:31.935Z,99940.17
2023-06-07T02:11:35.706Z,99935.19
2023-06-07T02:16:39.237Z,99930.81
2023-06-07T02:21:41.901Z,99929.50
2023-06-07T02:26:45.009Z,99930.15
2023-06-07T02:31:51.484Z,99927.16
2023-06-07T02:36:55.375Z,99924.85
2023-06-07T02:41:59.300Z,99927.05
2023-06-07T02:47:01.672Z,99930.42
2023-06-07T02:52:05.995Z,99928.96
2023-06-07T02:57:09.553Z,99927.48
2023-06-07T03:02:13.335Z,99933.36
2023-06-07T03:07:16.828Z,99930.14
2023-06-07T03:12:19.287Z,99939.50
2023-06-07T03:17:21.099Z,99935.79
2023-06-07T03:22:23.211Z,99936.79
2023-06-07T03:27:25.982Z,99938.77
2023-06-07T03:32:28.257Z,99940.45
2023-06-07T03:37:31.440Z,99943.27
2023-06-07T03:42:34.911Z,99945.88
2023-06-07T03:47:38.168Z,99943.86
2023-06-07T03:52:40.954Z,99948.52
2023-06-07T03:57:44.127Z,99953.80
2023-06-07T04:02:46.752Z,99951.55
2023-06-07T04:07:50.084Z,99949.30
2023-06-07T04:12:52.994Z,99950.45
2023-06-07T04:17:55.917Z,99951.70
2023-06-07T04:22:58.503Z,99940.70
2023-06-07T04:28:01.674Z,99942.36
2023-06-07T04:33:11.397Z,99944.27
2023-06-07T04:38:16.521Z,99948.94
2023-06-07T04:43:21.146Z,99945.65
2023-06-07T04:48:27.424Z,99951.06
2023-06-07T04:53:42.931Z,99951.65
2023-06-07T04:58:47.032Z,99951.24
2023-06-07T05:03:51.834Z,99948.77
2023-06-07T05:08:56.927Z,99945.57
2023-06-07T05:14:00.632Z,99947.55
2023-06-07T05:19:05.136Z,99941.97
2023-06-07T05:24:07.940Z,99944.95
2023-06-07T05:29:10.033Z,99947.45
2023-06-07T05:34:12.158Z,99949.28
2023-06-07T05:39:14.265Z,99960.80
2023-06-07T05:44:20.144Z,99956.13
2023-06-07T05:49:23.789Z,99957.99
2023-06-07T05:54:26.794Z,99960.23
2023-06-07T05:59:32.374Z,99958.08
2023-06-07T06:04:36.250Z,99959.94
2023-06-07T06:09:38.488Z,99961.70
2023-06-07T06:14:40.942Z,99962.81
2023-06-07T06:19:43.644Z,99969.45
2023-06-07T06:24:46.819Z,99972.22
2023-06-07T06:29:48.643Z,99964.98
2023-06-07T06:34:50.626Z,99968.95
2023-06-07T06:39:52.840Z,99967.03
2023-06-07T06:44:55.485Z,99962.84
2023-06-07T06:50:00.217Z,99966.53
2023-06-07T06:55:02.181Z,99966.39
2023-06-07T07:00:07.692Z,99969.48
2023-06-07T07:05:12.089Z,99969.20
2023-06-07T07:10:14.055Z,99975.98
2023-06-07T07:15:16.929Z,99974.51
2023-06-07T07:20:19.027Z,99977.14
2023-06-07T07:25:22.827Z,99981.52
2023-06-07T07:30:26.146Z,99974.36
2023-06-07T07:35:29.002Z,99969.73
2023-06-07T07:40:32.264Z,99970.30
2023-06-07T07:45:34.614Z,99966.44
2023-06-07T07:50:39.645Z,99958.16
2023-06-07T07:55:43.219Z,99962.41
2023-06-07T08:00:47.209Z,99964.98
2023-06-07T08:05:50.851Z,99965.89
2023-06-07T08:10:53.261Z,99960.36
2023-06-07T08:15:56.815Z,99958.16
2023-06-07T08:21:00.442Z,99962.00
2023-06-07T08:26:04.262Z,99959.13
2023-06-07T08:31:07.881Z,99958.48
2023-06-07T08:36:11.291Z,99956.02
2023-06-07T08:41:17.374Z,99960.27
2023-06-07T08:46:21.870Z,99960.41
2023-06-07T08:51:27.363Z,99958.81
2023-06-07T08:56:33.422Z,99955.70
2023-06-07T09:01:38.222Z,99951.45
2023-06-07T09:06:41.135Z,99946.48
2023-06-07T09:11:44.891Z,99942.48
2023-06-07T09:16:55.975Z,99941.36
2023-06-07T09:21:59.236Z,99938.76
2023-06-07T09:27:04.526Z,99939.34
2023-06-07T09:32:23.054Z,99951.91
2023-06-07T09:37:46.460Z,99940.91
2023-06-07T09:43:01.265Z,99938.88
2023-06-07T09:48:08.644Z,99939.91
2023-06-07T09:53:11.588Z,99939.33
2023-06-07T09:58:25.939Z,99934.00
2023-06-07T10:03:29.653Z,99934.81
2023-06-07T10:08:32.379Z,99933.19
2023-06-07T10:13:36.520Z,99920.42
2023-06-07T10:18:43.003Z,99915.27
2023-06-07T10:24:01.843Z,99916.07
2023-06-07T10:29:10.430Z,99913.16
2023-06-07T10:34:16.438Z,99923.38
2023-06-07T10:39:23.581Z,99911.14
2023-06-07T10:44:27.139Z,99904.23
2023-06-07T10:49:37.068Z,99899.84
2023-06-07T10:54:39.353Z,99896.09
2023-06-07T10:59:44.327Z,99886.05
2023-06-07T11:04:52.732Z,99887.08
2023-06-07T11:10:14.698Z,99891.77
2023-06-07T11:15:29.722Z,99891.16
2023-06-07T11:20:39.685Z,99887.68
2023-06-07T11:25:42.427Z,99886.46
2023-06-07T11:30:44.925Z,99885.27
2023-06-07T11:35:48.523Z,99882.26
2023-06-07T11:40:51.030Z,99881.11
2023-06-07T11:45:57.887Z,99887.91
2023-06-07T11:51:01.315Z,99879.79
2023-06-07T11:56:04.710Z,99879.92
2023-06-07T12:01:07.754Z,99882.52
2023-06-07T12:06:10.986Z,99874.52
2023-06-07T12:11:15.338Z,99864.69
2023-06-07T12:16:28.343Z,99861.16
2023-06-07T12:21:31.806Z,99865.06
2023-06-07T12:26:37.468Z,99861.05
2023-06-07T12:31:44.059Z,99854.80
2023-06-07T12:36:49.722Z,99850.98
2023-06-07T12:41:53.616Z,99852.31
2023-06-07T12:46:56.597Z,99852.87
2023-06-07T12:51:58.780Z,99847.46
2023-06-07T12:57:02.446Z,99847.48
2023-06-07T13:02:08.140Z,99835.42
2023-06-07T13:07:12.578Z,99832.68
2023-06-07T13:12:17.281Z,99832.19
2023-06-07T13:17:25.117Z,99831.98
2023-06-07T13:22:34.035Z,99828.48
2023-06-07T13:27:39.241Z,99827.28
2023-06-07T13:32:43.971Z,99818.91
2023-06-07T13:37:48.808Z,99812.42
2023-06-07T13:42:53.754Z,99801.80
2023-06-07T13:47:57.922Z,99795.30
2023-06-07T13:53:02.872Z,99795.39
2023-06-07T13:58:07.438Z,99798.71
2023-06-07T14:03:11.010Z,99794.98
2023-06-07T14:08:14.345Z,99792.30
2023-06-07T14:13:19.626Z,99788.11
2023-06-07T14:18:25.312Z,99779.52
2023-06-07T14:23:30.044Z,99775.00
2023-06-07T14:28:34.401Z,99777.73
2023-06-07T14:33:39.882Z,99775.71
2023-06-07T14:38:45.421Z,99768.70
2023-06-07T14:43:49.782Z,99772.83
2023-06-07T14:48:55.038Z,99776.70
2023-06-07T14:54:01.707Z,99778.23
2023-06-07T14:59:14.572Z,99775.54
2023-06-07T15:04:19.035Z,99771.57
2023-06-07T15:09:26.277Z,99769.98
2023-06-07T15:14:30.249Z,99768.91
2023-06-07T15:19:34.269Z,99763.88
2023-06-07T15:24:38.827Z,99765.54
2023-06-07T15:29:41.360Z,99764.70
2023-06-07T15:34:46.452Z,99767.87
2023-06-07T15:39:49.948Z,99769.84
2023-06-07T15:44:53.296Z,99773.31
2023-06-07T15:49:56.565Z,99772.41
2023-06-07T15:54:58.679Z,99776.06
2023-06-07T16:00:00.653Z,99773.48
2023-06-07T16:05:04.328Z,99768.83
2023-06-07T16:10:09.010Z,99765.66
2023-06-07T16:15:12.511Z,99770.34
2023-06-07T16:20:15.885Z,99769.48
2023-06-07T16:25:20.896Z,99774.11
2023-06-07T16:30:26.575Z,99774.73
2023-06-07T16:35:29.607Z,99774.77
2023-06-07T16:40:32.381Z,99773.68
2023-06-07T16:45:37.518Z,99781.77
2023-06-07T16:50:42.997Z,99783.27
2023-06-07T16:55:46.725Z,99788.29
2023-06-07T17:00:51.691Z,99789.44
2023-06-07T17:05:56.880Z,99799.00
2023-06-07T17:11:04.879Z,99810.67
2023-06-07T17:16:10.609Z,99822.63
2023-06-07T17:21:15.082Z,99823.99
2023-06-07T17:26:19.110Z,99826.29
2023-06-07T17:31:24.455Z,99827.83
2023-06-07T17:36:36.796Z,99831.69
2023-06-07T17:41:46.214Z,99838.44
2023-06-07T17:46:48.831Z,99840.53
2023-06-07T17:51:53.443Z,99844.86
2023-06-07T17:56:55.728Z,99842.84
2023-06-07T18:01:58.144Z,99844.77
2023-06-07T18:07:04.272Z,99850.64
2023-06-07T18:12:14.122Z,99849.60
2023-06-07T18:17:18.845Z,99853.45
2023-06-07T18:22:22.789Z,99846.43
2023-06-07T18:27:25.936Z,99851.10
2023-06-07T18:32:31.291Z,99847.89
2023-06-07T18:37:37.433Z,99850.09
2023-06-07T18:42:40.600Z,99850.08
2023-06-07T18:47:45.351Z,99848.14
2023-06-07T18:52:53.159Z,99852.79
2023-06-07T18:57:59.849Z,99861.83
2023-06-07T19:03:07.458Z,99870.73
2023-06-07T19:08:14.116Z,99872.33
2023-06-07T19:13:21.173Z,99876.66
2023-06-07T19:18:24.746Z,99876.55
2023-06-07T19:23:28.289Z,99878.81
2023-06-07T19:28:35.009Z,99883.71
2023-06-07T19:33:39.616Z,99883.74
2023-06-07T19:38:45.421Z,99890.48
2023-06-07T19:43:48.800Z,99892.85
2023-06-07T19:48:51.407Z,99896.36
2023-06-07T19:53:57.949Z,99901.48
2023-06-07T19:59:01.905Z,99899.98
2023-06-07T20:04:05.578Z,99897.77
2023-06-07T20:09:10.658Z,99902.88
2023-06-07T20:14:14.659Z,99897.70
2023-06-07T20:19:18.284Z,99904.81
2023-06-07T20:24:21.632Z,99911.91
2023-06-07T20:29:25.464Z,99912.40
2023-06-07T20:34:30.090Z,99910.96
2023-06-07T20:39:33.249Z,99914.55
2023-06-07T20:44:51.492Z,99915.67
2023-06-07T20:49:59.161Z,99909.13
2023-06-07T20:55:03.527Z,99912.89
2023-06-07T21:00:10.230Z,99911.98
2023-06-07T21:05:16.189Z,99905.36
2023-06-07T21:10:19.723Z,99911.22
2023-06-07T21:15:23.951Z,99909.92
2023-06-07T21:20:28.610Z,99910.46
2023-06-07T21:25:33.346Z,99907.71
2023-06-07T21:30:36.609Z,99913.20
2023-06-07T21:35:40.561Z,99909.10
2023-06-07T21:40:44.335Z,99906.39
2023-06-07T21:45:51.286Z,99907.39
2023-06-07T21:50:55.435Z,99914.03
2023-06-07T21:55:59.583Z,99909.70
2023-06-07T22:01:03.094Z,99908.00
2023-06-07T22:06:07.264Z,99907.33
2023-06-07T22:11:10.186Z,99911.64
2023-06-07T22:16:13.999Z,99913.46
2023-06-07T22:21:19.033Z,99909.09
2023-06-07T22:26:21.254Z,99911.92
2023-06-07T22:31:23.886Z,99911.91
2023-06-07T22:36:32.930Z,99913.55
2023-06-07T22:41:36.318Z,99921.36
2023-06-07T22:46:38.262Z,99924.37
2023-06-07T22:51:44.446Z,99924.69
2023-06-07T22:56:49.783Z,99921.65
2023-06-07T23:01:55.461Z,99923.55
2023-06-07T23:07:00.694Z,99921.98
2023-06-07T23:12:06.599Z,99927.64
2023-06-07T23:17:11.327Z,99928.80
2023-06-07T23:22:18.550Z,99928.29
2023-06-07T23:27:21.311Z,99931.48
2023-06-07T23:32:24.350Z,99926.59
2023-06-07T23:37:29.386Z,99920.71
2023-06-07T23:42:33.707Z,99925.41
2023-06-07T23:47:38.675Z,99924.00
2023-06-07T23:52:42.235Z,99930.20
2023-06-07T23:57:46.119Z,99921.69
